sensor_id;sensor_type;location;lat;lon;timestamp;temperature;humidity
18105;DHT22;9179;50.968;3.134;2023-04-25T00:01:09;10.30;99.90
18105;DHT22;9179;50.968;3.134;2023-04-25T00:03:38;10.20;99.90
18105;DHT22;9179;50.968;3.134;2023-04-25T00:06:06;10.20;99.90
18105;DHT22;9179;50.968;3.134;2023-04-25T00:08:33;10.20;99.90
18105;DHT22;9179;50.968;3.134;2023-04-25T00:11:01;10.10;99.90
18105;DHT22;9179;50.968;3.134;2023-04-25T00:13:28;10.20;99.90
18105;DHT22;9179;50.968;3.134;2023-04-25T00:15:55;10.20;99.90
18105;DHT22;9179;50.968;3.134;2023-04-25T00:18:23;10.20;99.90
18105;DHT22;9179;50.968;3.134;2023-04-25T00:20:50;10.10;99.90
18105;DHT22;9179;50.968;3.134;2023-04-25T00:23:17;10.20;99.90
18105;DHT22;9179;50.968;3.134;2023-04-25T00:25:44;10.00;99.90
18105;DHT22;9179;50.968;3.134;2023-04-25T00:28:13;9.80;99.90
18105;DHT22;9179;50.968;3.134;2023-04-25T00:30:40;9.80;99.90
18105;DHT22;9179;50.968;3.134;2023-04-25T00:33:08;9.80;99.90
18105;DHT22;9179;50.968;3.134;2023-04-25T00:35:35;9.80;99.90
18105;DHT22;9179;50.968;3.134;2023-04-25T00:38:02;9.80;99.90
18105;DHT22;9179;50.968;3.134;2023-04-25T00:40:29;9.70;99.90
18105;DHT22;9179;50.968;3.134;2023-04-25T00:42:56;9.60;99.90
18105;DHT22;9179;50.968;3.134;2023-04-25T00:45:27;9.60;99.90
18105;DHT22;9179;50.968;3.134;2023-04-25T00:47:55;9.80;99.90
18105;DHT22;9179;50.968;3.134;2023-04-25T00:50:22;9.80;99.90
18105;DHT22;9179;50.968;3.134;2023-04-25T00:52:49;9.90;99.90
18105;DHT22;9179;50.968;3.134;2023-04-25T00:55:16;9.60;99.90
18105;DHT22;9179;50.968;3.134;2023-04-25T00:57:43;9.40;99.90
18105;DHT22;9179;50.968;3.134;2023-04-25T01:00:11;9.30;99.90
18105;DHT22;9179;50.968;3.134;2023-04-25T01:02:40;9.20;99.90
18105;DHT22;9179;50.968;3.134;2023-04-25T01:05:08;9.10;99.90
18105;DHT22;9179;50.968;3.134;2023-04-25T01:07:35;9.00;99.90
18105;DHT22;9179;50.968;3.134;2023-04-25T01:10:02;8.80;99.90
18105;DHT22;9179;50.968;3.134;2023-04-25T01:12:30;8.80;99.90
18105;DHT22;9179;50.968;3.134;2023-04-25T01:14:57;9.00;99.90
18105;DHT22;9179;50.968;3.134;2023-04-25T01:17:24;9.00;99.90
18105;DHT22;9179;50.968;3.134;2023-04-25T01:19:52;9.20;99.90
18105;DHT22;9179;50.968;3.134;2023-04-25T01:22:21;9.20;99.90
18105;DHT22;9179;50.968;3.134;2023-04-25T01:24:48;9.30;99.90
18105;DHT22;9179;50.968;3.134;2023-04-25T01:27:15;9.40;99.90
18105;DHT22;9179;50.968;3.134;2023-04-25T01:29:43;9.30;99.90
18105;DHT22;9179;50.968;3.134;2023-04-25T01:32:10;9.20;99.90
18105;DHT22;9179;50.968;3.134;2023-04-25T01:34:37;9.30;99.90
18105;DHT22;9179;50.968;3.134;2023-04-25T01:37:04;9.50;99.90
18105;DHT22;9179;50.968;3.134;2023-04-25T01:39:33;9.40;99.90
18105;DHT22;9179;50.968;3.134;2023-04-25T01:42:00;9.30;99.90
18105;DHT22;9179;50.968;3.134;2023-04-25T01:44:27;9.30;99.90
18105;DHT22;9179;50.968;3.134;2023-04-25T01:46:54;9.20;99.90
18105;DHT22;9179;50.968;3.134;2023-04-25T01:49:21;9.20;99.90
18105;DHT22;9179;50.968;3.134;2023-04-25T01:51:49;9.10;99.90
18105;DHT22;9179;50.968;3.134;2023-04-25T01:54:16;9.10;99.90
18105;DHT22;9179;50.968;3.134;2023-04-25T01:56:50;9.10;99.90
18105;DHT22;9179;50.968;3.134;2023-04-25T01:59:18;9.10;99.90
18105;DHT22;9179;50.968;3.134;2023-04-25T02:01:45;9.20;99.90
18105;DHT22;9179;50.968;3.134;2023-04-25T02:04:12;9.20;99.90
18105;DHT22;9179;50.968;3.134;2023-04-25T02:06:39;9.20;99.90
18105;DHT22;9179;50.968;3.134;2023-04-25T02:09:06;9.20;99.90
18105;DHT22;9179;50.968;3.134;2023-04-25T02:11:33;9.30;99.90
18105;DHT22;9179;50.968;3.134;2023-04-25T02:14:01;9.30;99.90
18105;DHT22;9179;50.968;3.134;2023-04-25T02:16:28;9.10;99.90
18105;DHT22;9179;50.968;3.134;2023-04-25T02:18:56;9.10;99.90
18105;DHT22;9179;50.968;3.134;2023-04-25T02:21:23;9.00;99.90
18105;DHT22;9179;50.968;3.134;2023-04-25T02:23:50;9.00;99.90
18105;DHT22;9179;50.968;3.134;2023-04-25T02:26:17;9.00;99.90
18105;DHT22;9179;50.968;3.134;2023-04-25T02:28:44;9.00;99.90
18105;DHT22;9179;50.968;3.134;2023-04-25T02:31:12;9.00;99.90
18105;DHT22;9179;50.968;3.134;2023-04-25T02:33:39;8.90;99.90
18105;DHT22;9179;50.968;3.134;2023-04-25T02:36:07;8.90;99.90
18105;DHT22;9179;50.968;3.134;2023-04-25T02:38:34;8.90;99.90
18105;DHT22;9179;50.968;3.134;2023-04-25T02:41:01;8.90;99.90
18105;DHT22;9179;50.968;3.134;2023-04-25T02:43:27;8.80;99.90
18105;DHT22;9179;50.968;3.134;2023-04-25T02:45:55;8.90;99.90
18105;DHT22;9179;50.968;3.134;2023-04-25T02:48:23;8.90;99.90
18105;DHT22;9179;50.968;3.134;2023-04-25T02:50:50;9.00;99.90
18105;DHT22;9179;50.968;3.134;2023-04-25T02:53:17;8.90;99.90
18105;DHT22;9179;50.968;3.134;2023-04-25T02:55:44;8.90;99.90
18105;DHT22;9179;50.968;3.134;2023-04-25T02:58:11;8.90;99.90
18105;DHT22;9179;50.968;3.134;2023-04-25T03:00:38;9.00;99.90
18105;DHT22;9179;50.968;3.134;2023-04-25T03:03:05;9.10;99.90
18105;DHT22;9179;50.968;3.134;2023-04-25T03:05:33;9.10;99.90
18105;DHT22;9179;50.968;3.134;2023-04-25T03:08:00;9.10;99.90
18105;DHT22;9179;50.968;3.134;2023-04-25T03:10:27;9.10;99.90
18105;DHT22;9179;50.968;3.134;2023-04-25T03:12:54;9.10;99.90
18105;DHT22;9179;50.968;3.134;2023-04-25T03:15:21;9.00;99.90
18105;DHT22;9179;50.968;3.134;2023-04-25T03:17:48;8.90;99.90
18105;DHT22;9179;50.968;3.134;2023-04-25T03:20:15;8.90;99.90
18105;DHT22;9179;50.968;3.134;2023-04-25T03:22:43;8.80;99.90
18105;DHT22;9179;50.968;3.134;2023-04-25T03:25:11;8.80;99.90
18105;DHT22;9179;50.968;3.134;2023-04-25T03:27:38;8.90;99.90
18105;DHT22;9179;50.968;3.134;2023-04-25T03:30:06;8.80;99.90
18105;DHT22;9179;50.968;3.134;2023-04-25T03:32:33;8.70;99.90
18105;DHT22;9179;50.968;3.134;2023-04-25T03:35:00;8.80;99.90
18105;DHT22;9179;50.968;3.134;2023-04-25T03:37:27;8.80;99.90
18105;DHT22;9179;50.968;3.134;2023-04-25T03:39:55;8.90;99.90
18105;DHT22;9179;50.968;3.134;2023-04-25T03:42:22;8.90;99.90
18105;DHT22;9179;50.968;3.134;2023-04-25T03:44:49;8.90;99.90
18105;DHT22;9179;50.968;3.134;2023-04-25T03:47:16;8.90;99.90
18105;DHT22;9179;50.968;3.134;2023-04-25T03:49:43;8.90;99.90
18105;DHT22;9179;50.968;3.134;2023-04-25T03:52:10;8.90;99.90
18105;DHT22;9179;50.968;3.134;2023-04-25T03:54:37;8.90;99.90
18105;DHT22;9179;50.968;3.134;2023-04-25T03:57:05;9.00;99.90
18105;DHT22;9179;50.968;3.134;2023-04-25T03:59:32;9.00;99.90
18105;DHT22;9179;50.968;3.134;2023-04-25T04:01:59;8.80;99.90
18105;DHT22;9179;50.968;3.134;2023-04-25T04:04:26;8.60;99.90
18105;DHT22;9179;50.968;3.134;2023-04-25T04:06:53;8.50;99.90
18105;DHT22;9179;50.968;3.134;2023-04-25T04:09:20;8.50;99.90
18105;DHT22;9179;50.968;3.134;2023-04-25T04:11:47;8.40;99.90
18105;DHT22;9179;50.968;3.134;2023-04-25T04:14:15;8.50;99.90
18105;DHT22;9179;50.968;3.134;2023-04-25T04:16:42;8.50;99.90
18105;DHT22;9179;50.968;3.134;2023-04-25T04:19:09;8.60;99.90
18105;DHT22;9179;50.968;3.134;2023-04-25T04:21:36;8.60;99.90
18105;DHT22;9179;50.968;3.134;2023-04-25T04:24:03;8.50;99.90
18105;DHT22;9179;50.968;3.134;2023-04-25T04:26:32;8.50;99.90
18105;DHT22;9179;50.968;3.134;2023-04-25T04:28:59;8.50;99.90
18105;DHT22;9179;50.968;3.134;2023-04-25T04:31:28;8.50;99.90
18105;DHT22;9179;50.968;3.134;2023-04-25T04:33:55;8.50;99.90
18105;DHT22;9179;50.968;3.134;2023-04-25T04:36:22;8.60;99.90
18105;DHT22;9179;50.968;3.134;2023-04-25T04:38:51;8.60;99.90
18105;DHT22;9179;50.968;3.134;2023-04-25T04:41:19;8.60;99.90
18105;DHT22;9179;50.968;3.134;2023-04-25T04:43:46;8.60;99.90
18105;DHT22;9179;50.968;3.134;2023-04-25T04:46:13;8.60;99.90
18105;DHT22;9179;50.968;3.134;2023-04-25T04:48:41;8.60;99.90
18105;DHT22;9179;50.968;3.134;2023-04-25T04:51:10;8.60;99.90
18105;DHT22;9179;50.968;3.134;2023-04-25T04:53:37;8.70;99.90
18105;DHT22;9179;50.968;3.134;2023-04-25T04:56:04;8.80;99.90
18105;DHT22;9179;50.968;3.134;2023-04-25T04:58:31;8.90;99.90
18105;DHT22;9179;50.968;3.134;2023-04-25T05:00:58;9.00;99.90
18105;DHT22;9179;50.968;3.134;2023-04-25T05:03:25;9.00;99.90
18105;DHT22;9179;50.968;3.134;2023-04-25T05:05:54;9.10;99.90
18105;DHT22;9179;50.968;3.134;2023-04-25T05:08:21;9.10;99.90
18105;DHT22;9179;50.968;3.134;2023-04-25T05:10:48;9.10;99.90
18105;DHT22;9179;50.968;3.134;2023-04-25T05:13:14;9.20;99.90
18105;DHT22;9179;50.968;3.134;2023-04-25T05:15:41;9.30;99.90
18105;DHT22;9179;50.968;3.134;2023-04-25T05:18:08;9.30;99.90
18105;DHT22;9179;50.968;3.134;2023-04-25T05:20:35;9.40;99.90
18105;DHT22;9179;50.968;3.134;2023-04-25T05:23:03;9.40;99.90
18105;DHT22;9179;50.968;3.134;2023-04-25T05:25:30;9.50;99.90
18105;DHT22;9179;50.968;3.134;2023-04-25T05:27:57;9.80;99.90
18105;DHT22;9179;50.968;3.134;2023-04-25T05:30:24;10.00;99.90
18105;DHT22;9179;50.968;3.134;2023-04-25T05:32:51;10.10;99.90
18105;DHT22;9179;50.968;3.134;2023-04-25T05:35:18;10.20;99.90
18105;DHT22;9179;50.968;3.134;2023-04-25T05:37:45;10.30;99.90
18105;DHT22;9179;50.968;3.134;2023-04-25T05:40:14;10.40;99.90
18105;DHT22;9179;50.968;3.134;2023-04-25T05:42:41;10.50;99.90
18105;DHT22;9179;50.968;3.134;2023-04-25T05:45:08;10.50;99.90
18105;DHT22;9179;50.968;3.134;2023-04-25T05:47:35;10.70;99.90
18105;DHT22;9179;50.968;3.134;2023-04-25T05:50:02;10.70;99.90
18105;DHT22;9179;50.968;3.134;2023-04-25T05:52:29;10.60;99.90
18105;DHT22;9179;50.968;3.134;2023-04-25T05:54:56;10.40;99.90
18105;DHT22;9179;50.968;3.134;2023-04-25T05:57:25;10.30;99.90
18105;DHT22;9179;50.968;3.134;2023-04-25T05:59:53;10.30;99.90
18105;DHT22;9179;50.968;3.134;2023-04-25T06:02:20;10.30;99.90
18105;DHT22;9179;50.968;3.134;2023-04-25T06:04:48;10.10;99.90
18105;DHT22;9179;50.968;3.134;2023-04-25T06:07:15;9.90;99.90
18105;DHT22;9179;50.968;3.134;2023-04-25T06:09:42;9.50;99.90
18105;DHT22;9179;50.968;3.134;2023-04-25T06:12:09;8.90;99.90
18105;DHT22;9179;50.968;3.134;2023-04-25T06:14:38;8.70;99.90
18105;DHT22;9179;50.968;3.134;2023-04-25T06:17:05;8.80;99.90
18105;DHT22;9179;50.968;3.134;2023-04-25T06:19:34;9.00;99.90
18105;DHT22;9179;50.968;3.134;2023-04-25T06:22:01;9.30;99.90
18105;DHT22;9179;50.968;3.134;2023-04-25T06:24:28;9.40;99.90
18105;DHT22;9179;50.968;3.134;2023-04-25T06:26:55;9.50;99.90
18105;DHT22;9179;50.968;3.134;2023-04-25T06:29:22;9.70;99.90
18105;DHT22;9179;50.968;3.134;2023-04-25T06:31:50;9.90;99.90
18105;DHT22;9179;50.968;3.134;2023-04-25T06:34:17;10.10;99.90
18105;DHT22;9179;50.968;3.134;2023-04-25T06:36:44;10.40;99.90
18105;DHT22;9179;50.968;3.134;2023-04-25T06:39:11;10.80;99.90
18105;DHT22;9179;50.968;3.134;2023-04-25T06:41:38;11.30;99.90
18105;DHT22;9179;50.968;3.134;2023-04-25T06:44:05;11.60;99.90
18105;DHT22;9179;50.968;3.134;2023-04-25T06:46:32;11.80;99.90
18105;DHT22;9179;50.968;3.134;2023-04-25T06:49:00;11.90;99.90
18105;DHT22;9179;50.968;3.134;2023-04-25T06:51:28;11.80;99.90
18105;DHT22;9179;50.968;3.134;2023-04-25T06:53:56;11.60;99.90
18105;DHT22;9179;50.968;3.134;2023-04-25T06:56:23;11.60;99.90
18105;DHT22;9179;50.968;3.134;2023-04-25T06:58:50;11.80;99.90
18105;DHT22;9179;50.968;3.134;2023-04-25T07:01:17;11.90;99.90
18105;DHT22;9179;50.968;3.134;2023-04-25T07:03:44;12.00;99.90
18105;DHT22;9179;50.968;3.134;2023-04-25T07:06:12;11.90;99.90
18105;DHT22;9179;50.968;3.134;2023-04-25T07:08:39;11.90;99.90
18105;DHT22;9179;50.968;3.134;2023-04-25T07:11:06;11.90;99.90
18105;DHT22;9179;50.968;3.134;2023-04-25T07:13:33;12.20;99.90
18105;DHT22;9179;50.968;3.134;2023-04-25T07:16:00;12.50;99.90
18105;DHT22;9179;50.968;3.134;2023-04-25T07:18:27;12.80;99.90
18105;DHT22;9179;50.968;3.134;2023-04-25T07:20:54;13.10;99.90
18105;DHT22;9179;50.968;3.134;2023-04-25T07:23:22;13.60;99.90
18105;DHT22;9179;50.968;3.134;2023-04-25T07:25:49;14.30;99.90
18105;DHT22;9179;50.968;3.134;2023-04-25T07:28:16;15.70;99.90
18105;DHT22;9179;50.968;3.134;2023-04-25T07:30:43;17.10;99.90
18105;DHT22;9179;50.968;3.134;2023-04-25T07:33:10;17.80;99.90
18105;DHT22;9179;50.968;3.134;2023-04-25T07:35:37;18.20;99.90
18105;DHT22;9179;50.968;3.134;2023-04-25T07:38:04;19.00;99.90
18105;DHT22;9179;50.968;3.134;2023-04-25T07:40:33;20.20;99.90
18105;DHT22;9179;50.968;3.134;2023-04-25T07:43:00;20.10;99.90
18105;DHT22;9179;50.968;3.134;2023-04-25T07:45:27;18.40;99.90
18105;DHT22;9179;50.968;3.134;2023-04-25T07:47:54;16.30;99.90
18105;DHT22;9179;50.968;3.134;2023-04-25T07:50:21;13.80;99.90
18105;DHT22;9179;50.968;3.134;2023-04-25T07:52:49;12.10;99.90
18105;DHT22;9179;50.968;3.134;2023-04-25T07:55:16;11.30;99.90
18105;DHT22;9179;50.968;3.134;2023-04-25T07:57:44;11.00;99.90
18105;DHT22;9179;50.968;3.134;2023-04-25T08:00:12;10.90;99.90
18105;DHT22;9179;50.968;3.134;2023-04-25T08:02:40;11.00;99.90
18105;DHT22;9179;50.968;3.134;2023-04-25T08:05:08;11.50;99.90
18105;DHT22;9179;50.968;3.134;2023-04-25T08:07:37;11.80;99.90
18105;DHT22;9179;50.968;3.134;2023-04-25T08:10:05;12.00;99.90
18105;DHT22;9179;50.968;3.134;2023-04-25T08:12:33;12.50;99.90
18105;DHT22;9179;50.968;3.134;2023-04-25T08:15:01;13.30;99.90
18105;DHT22;9179;50.968;3.134;2023-04-25T08:17:28;15.60;99.90
18105;DHT22;9179;50.968;3.134;2023-04-25T08:19:55;16.60;99.90
18105;DHT22;9179;50.968;3.134;2023-04-25T08:22:22;17.50;99.90
18105;DHT22;9179;50.968;3.134;2023-04-25T08:24:49;16.80;99.90
18105;DHT22;9179;50.968;3.134;2023-04-25T08:27:17;15.10;99.90
18105;DHT22;9179;50.968;3.134;2023-04-25T08:29:44;13.70;99.90
18105;DHT22;9179;50.968;3.134;2023-04-25T08:32:12;12.80;99.90
18105;DHT22;9179;50.968;3.134;2023-04-25T08:34:39;12.40;99.90
18105;DHT22;9179;50.968;3.134;2023-04-25T08:37:08;12.10;99.90
18105;DHT22;9179;50.968;3.134;2023-04-25T08:39:35;11.90;99.90
18105;DHT22;9179;50.968;3.134;2023-04-25T08:42:05;11.60;99.90
18105;DHT22;9179;50.968;3.134;2023-04-25T08:44:33;11.50;99.90
18105;DHT22;9179;50.968;3.134;2023-04-25T08:47:02;11.60;99.90
18105;DHT22;9179;50.968;3.134;2023-04-25T08:49:31;12.70;99.90
18105;DHT22;9179;50.968;3.134;2023-04-25T08:52:00;15.30;99.90
18105;DHT22;9179;50.968;3.134;2023-04-25T08:54:27;16.20;99.90
18105;DHT22;9179;50.968;3.134;2023-04-25T08:56:57;14.50;99.90
18105;DHT22;9179;50.968;3.134;2023-04-25T08:59:24;13.20;99.90
18105;DHT22;9179;50.968;3.134;2023-04-25T09:01:51;13.90;99.90
18105;DHT22;9179;50.968;3.134;2023-04-25T09:04:18;15.10;99.90
18105;DHT22;9179;50.968;3.134;2023-04-25T09:06:47;15.90;99.90
18105;DHT22;9179;50.968;3.134;2023-04-25T09:09:14;16.20;99.90
18105;DHT22;9179;50.968;3.134;2023-04-25T09:11:41;16.80;99.90
18105;DHT22;9179;50.968;3.134;2023-04-25T09:14:13;17.60;99.90
18105;DHT22;9179;50.968;3.134;2023-04-25T09:17:00;18.50;99.90
18105;DHT22;9179;50.968;3.134;2023-04-25T09:19:29;17.70;99.90
18105;DHT22;9179;50.968;3.134;2023-04-25T09:21:59;17.30;99.90
18105;DHT22;9179;50.968;3.134;2023-04-25T09:24:34;16.80;99.90
18105;DHT22;9179;50.968;3.134;2023-04-25T09:27:03;16.80;99.90
18105;DHT22;9179;50.968;3.134;2023-04-25T09:29:31;16.20;99.90
18105;DHT22;9179;50.968;3.134;2023-04-25T09:32:13;16.90;99.90
18105;DHT22;9179;50.968;3.134;2023-04-25T09:34:40;18.20;99.90
18105;DHT22;9179;50.968;3.134;2023-04-25T09:37:10;18.30;99.90
18105;DHT22;9179;50.968;3.134;2023-04-25T09:39:38;17.60;99.90
18105;DHT22;9179;50.968;3.134;2023-04-25T09:42:05;18.40;99.90
18105;DHT22;9179;50.968;3.134;2023-04-25T09:44:32;19.10;99.90
18105;DHT22;9179;50.968;3.134;2023-04-25T09:46:59;19.20;99.90
18105;DHT22;9179;50.968;3.134;2023-04-25T09:49:27;19.20;99.90
18105;DHT22;9179;50.968;3.134;2023-04-25T09:51:54;18.40;99.90
18105;DHT22;9179;50.968;3.134;2023-04-25T09:54:23;18.40;99.90
18105;DHT22;9179;50.968;3.134;2023-04-25T09:56:52;18.60;99.90
18105;DHT22;9179;50.968;3.134;2023-04-25T09:59:20;19.10;99.90
18105;DHT22;9179;50.968;3.134;2023-04-25T10:01:48;18.40;99.90
18105;DHT22;9179;50.968;3.134;2023-04-25T10:04:24;18.20;99.90
18105;DHT22;9179;50.968;3.134;2023-04-25T10:06:53;18.90;99.90
18105;DHT22;9179;50.968;3.134;2023-04-25T10:09:24;18.80;99.90
18105;DHT22;9179;50.968;3.134;2023-04-25T10:11:53;19.30;99.90
18105;DHT22;9179;50.968;3.134;2023-04-25T10:14:21;20.60;99.90
18105;DHT22;9179;50.968;3.134;2023-04-25T10:16:49;20.90;99.90
18105;DHT22;9179;50.968;3.134;2023-04-25T10:19:19;18.70;99.90
18105;DHT22;9179;50.968;3.134;2023-04-25T10:21:51;17.10;99.90
18105;DHT22;9179;50.968;3.134;2023-04-25T10:24:19;15.70;99.90
18105;DHT22;9179;50.968;3.134;2023-04-25T10:26:48;14.60;99.90
18105;DHT22;9179;50.968;3.134;2023-04-25T10:29:22;14.70;99.90
18105;DHT22;9179;50.968;3.134;2023-04-25T10:31:49;16.90;99.90
18105;DHT22;9179;50.968;3.134;2023-04-25T10:34:16;18.00;99.90
18105;DHT22;9179;50.968;3.134;2023-04-25T10:36:49;19.30;99.90
18105;DHT22;9179;50.968;3.134;2023-04-25T10:39:22;19.40;99.90
18105;DHT22;9179;50.968;3.134;2023-04-25T10:41:56;20.60;99.90
18105;DHT22;9179;50.968;3.134;2023-04-25T10:44:26;19.30;99.90
18105;DHT22;9179;50.968;3.134;2023-04-25T10:46:55;17.70;99.90
18105;DHT22;9179;50.968;3.134;2023-04-25T10:49:31;16.40;99.90
18105;DHT22;9179;50.968;3.134;2023-04-25T10:52:18;17.10;99.90
18105;DHT22;9179;50.968;3.134;2023-04-25T10:54:51;16.80;99.90
18105;DHT22;9179;50.968;3.134;2023-04-25T10:57:28;16.00;99.90
18105;DHT22;9179;50.968;3.134;2023-04-25T10:59:59;15.10;99.90
18105;DHT22;9179;50.968;3.134;2023-04-25T11:02:27;15.10;99.90
18105;DHT22;9179;50.968;3.134;2023-04-25T11:04:55;16.70;99.90
18105;DHT22;9179;50.968;3.134;2023-04-25T11:07:33;17.50;99.90
18105;DHT22;9179;50.968;3.134;2023-04-25T11:10:03;17.30;99.90
18105;DHT22;9179;50.968;3.134;2023-04-25T11:12:32;16.30;99.90
18105;DHT22;9179;50.968;3.134;2023-04-25T11:15:00;15.20;99.90
18105;DHT22;9179;50.968;3.134;2023-04-25T11:17:28;15.30;99.90
18105;DHT22;9179;50.968;3.134;2023-04-25T11:19:55;17.50;99.90
18105;DHT22;9179;50.968;3.134;2023-04-25T11:22:23;18.70;99.90
18105;DHT22;9179;50.968;3.134;2023-04-25T11:24:50;18.80;99.90
18105;DHT22;9179;50.968;3.134;2023-04-25T11:27:18;18.70;99.90
18105;DHT22;9179;50.968;3.134;2023-04-25T11:29:47;17.80;99.90
18105;DHT22;9179;50.968;3.134;2023-04-25T11:32:15;17.50;99.90
18105;DHT22;9179;50.968;3.134;2023-04-25T11:34:44;17.60;99.90
18105;DHT22;9179;50.968;3.134;2023-04-25T11:37:11;16.90;99.90
18105;DHT22;9179;50.968;3.134;2023-04-25T11:39:43;16.50;99.90
18105;DHT22;9179;50.968;3.134;2023-04-25T11:42:11;15.80;99.80
18105;DHT22;9179;50.968;3.134;2023-04-25T11:44:39;15.50;99.90
18105;DHT22;9179;50.968;3.134;2023-04-25T11:47:07;15.40;99.90
18105;DHT22;9179;50.968;3.134;2023-04-25T11:49:35;15.40;99.90
18105;DHT22;9179;50.968;3.134;2023-04-25T11:52:02;15.40;99.90
18105;DHT22;9179;50.968;3.134;2023-04-25T11:54:29;15.30;99.00
18105;DHT22;9179;50.968;3.134;2023-04-25T11:56:56;15.50;99.90
18105;DHT22;9179;50.968;3.134;2023-04-25T11:59:25;15.60;99.90
18105;DHT22;9179;50.968;3.134;2023-04-25T12:01:53;15.40;99.90
18105;DHT22;9179;50.968;3.134;2023-04-25T12:04:23;14.70;99.90
18105;DHT22;9179;50.968;3.134;2023-04-25T12:06:52;14.60;99.90
18105;DHT22;9179;50.968;3.134;2023-04-25T12:09:20;14.70;99.90
18105;DHT22;9179;50.968;3.134;2023-04-25T12:11:53;14.50;99.90
18105;DHT22;9179;50.968;3.134;2023-04-25T12:14:21;14.30;99.90
18105;DHT22;9179;50.968;3.134;2023-04-25T12:16:50;14.30;99.90
18105;DHT22;9179;50.968;3.134;2023-04-25T12:19:20;14.70;99.90
18105;DHT22;9179;50.968;3.134;2023-04-25T12:21:49;14.80;99.90
18105;DHT22;9179;50.968;3.134;2023-04-25T12:24:18;15.80;99.90
18105;DHT22;9179;50.968;3.134;2023-04-25T12:26:50;16.20;99.90
18105;DHT22;9179;50.968;3.134;2023-04-25T12:29:18;16.30;99.90
18105;DHT22;9179;50.968;3.134;2023-04-25T12:31:46;16.60;99.90
18105;DHT22;9179;50.968;3.134;2023-04-25T12:34:13;17.40;99.90
18105;DHT22;9179;50.968;3.134;2023-04-25T12:36:40;18.50;99.90
18105;DHT22;9179;50.968;3.134;2023-04-25T12:39:13;18.20;99.90
18105;DHT22;9179;50.968;3.134;2023-04-25T12:41:41;17.70;99.90
18105;DHT22;9179;50.968;3.134;2023-04-25T12:44:08;18.40;99.90
18105;DHT22;9179;50.968;3.134;2023-04-25T12:46:35;19.60;99.90
18105;DHT22;9179;50.968;3.134;2023-04-25T12:49:03;20.30;96.40
18105;DHT22;9179;50.968;3.134;2023-04-25T12:51:30;19.10;95.10
18105;DHT22;9179;50.968;3.134;2023-04-25T12:53:58;18.50;94.70
18105;DHT22;9179;50.968;3.134;2023-04-25T12:56:27;18.90;93.40
18105;DHT22;9179;50.968;3.134;2023-04-25T12:58:54;18.80;92.70
18105;DHT22;9179;50.968;3.134;2023-04-25T13:01:21;18.80;92.50
18105;DHT22;9179;50.968;3.134;2023-04-25T13:03:49;19.50;92.80
18105;DHT22;9179;50.968;3.134;2023-04-25T13:06:16;20.50;91.80
18105;DHT22;9179;50.968;3.134;2023-04-25T13:08:44;21.20;88.00
18105;DHT22;9179;50.968;3.134;2023-04-25T13:11:11;22.60;87.60
18105;DHT22;9179;50.968;3.134;2023-04-25T13:13:39;21.70;80.00
18105;DHT22;9179;50.968;3.134;2023-04-25T13:16:07;20.30;80.40
18105;DHT22;9179;50.968;3.134;2023-04-25T13:18:34;19.90;79.70
18105;DHT22;9179;50.968;3.134;2023-04-25T13:21:02;18.90;79.50
18105;DHT22;9179;50.968;3.134;2023-04-25T13:23:29;19.70;83.10
18105;DHT22;9179;50.968;3.134;2023-04-25T13:25:56;21.30;80.50
18105;DHT22;9179;50.968;3.134;2023-04-25T13:28:24;20.90;76.80
18105;DHT22;9179;50.968;3.134;2023-04-25T13:30:52;21.30;77.90
18105;DHT22;9179;50.968;3.134;2023-04-25T13:33:19;21.40;74.80
18105;DHT22;9179;50.968;3.134;2023-04-25T13:35:48;21.80;74.10
18105;DHT22;9179;50.968;3.134;2023-04-25T13:38:20;22.70;74.20
18105;DHT22;9179;50.968;3.134;2023-04-25T13:40:47;22.80;69.90
18105;DHT22;9179;50.968;3.134;2023-04-25T13:43:15;21.20;72.00
18105;DHT22;9179;50.968;3.134;2023-04-25T13:45:41;21.10;72.00
18105;DHT22;9179;50.968;3.134;2023-04-25T13:48:10;18.80;74.60
18105;DHT22;9179;50.968;3.134;2023-04-25T13:50:37;16.60;80.40
18105;DHT22;9179;50.968;3.134;2023-04-25T13:53:04;15.40;84.40
18105;DHT22;9179;50.968;3.134;2023-04-25T13:55:31;14.60;87.20
18105;DHT22;9179;50.968;3.134;2023-04-25T13:57:58;14.10;90.00
18105;DHT22;9179;50.968;3.134;2023-04-25T14:00:25;13.90;90.40
18105;DHT22;9179;50.968;3.134;2023-04-25T14:02:52;13.80;90.90
18105;DHT22;9179;50.968;3.134;2023-04-25T14:05:20;14.10;91.70
18105;DHT22;9179;50.968;3.134;2023-04-25T14:07:47;14.60;91.60
18105;DHT22;9179;50.968;3.134;2023-04-25T14:10:14;15.10;91.50
18105;DHT22;9179;50.968;3.134;2023-04-25T14:12:41;15.50;90.70
18105;DHT22;9179;50.968;3.134;2023-04-25T14:15:08;15.70;90.70
18105;DHT22;9179;50.968;3.134;2023-04-25T14:17:36;15.90;90.30
18105;DHT22;9179;50.968;3.134;2023-04-25T14:20:04;16.30;89.80
18105;DHT22;9179;50.968;3.134;2023-04-25T14:22:34;15.90;90.00
18105;DHT22;9179;50.968;3.134;2023-04-25T14:25:02;16.00;90.40
18105;DHT22;9179;50.968;3.134;2023-04-25T14:27:29;15.70;90.30
18105;DHT22;9179;50.968;3.134;2023-04-25T14:29:56;15.50;90.50
18105;DHT22;9179;50.968;3.134;2023-04-25T14:32:23;15.90;90.50
18105;DHT22;9179;50.968;3.134;2023-04-25T14:34:50;19.70;84.70
18105;DHT22;9179;50.968;3.134;2023-04-25T14:37:17;18.20;83.00
18105;DHT22;9179;50.968;3.134;2023-04-25T14:39:46;16.50;86.00
18105;DHT22;9179;50.968;3.134;2023-04-25T14:42:13;15.70;87.60
18105;DHT22;9179;50.968;3.134;2023-04-25T14:44:40;15.20;89.30
18105;DHT22;9179;50.968;3.134;2023-04-25T14:47:07;15.20;90.40
18105;DHT22;9179;50.968;3.134;2023-04-25T14:49:34;15.40;90.60
18105;DHT22;9179;50.968;3.134;2023-04-25T14:52:01;15.10;90.40
18105;DHT22;9179;50.968;3.134;2023-04-25T14:54:28;14.80;91.10
18105;DHT22;9179;50.968;3.134;2023-04-25T14:56:57;14.90;91.60
18105;DHT22;9179;50.968;3.134;2023-04-25T14:59:24;15.00;91.50
18105;DHT22;9179;50.968;3.134;2023-04-25T15:01:51;15.20;91.60
18105;DHT22;9179;50.968;3.134;2023-04-25T15:04:18;18.50;90.00
18105;DHT22;9179;50.968;3.134;2023-04-25T15:06:45;21.40;78.80
18105;DHT22;9179;50.968;3.134;2023-04-25T15:09:12;19.30;79.70
18105;DHT22;9179;50.968;3.134;2023-04-25T15:11:39;17.50;83.90
18105;DHT22;9179;50.968;3.134;2023-04-25T15:14:07;16.40;86.40
18105;DHT22;9179;50.968;3.134;2023-04-25T15:16:34;16.00;88.30
18105;DHT22;9179;50.968;3.134;2023-04-25T15:19:02;15.70;89.20
18105;DHT22;9179;50.968;3.134;2023-04-25T15:21:30;15.60;90.10
18105;DHT22;9179;50.968;3.134;2023-04-25T15:23:57;17.10;88.20
18105;DHT22;9179;50.968;3.134;2023-04-25T15:26:24;21.30;80.00
18105;DHT22;9179;50.968;3.134;2023-04-25T15:28:51;23.70;71.00
18105;DHT22;9179;50.968;3.134;2023-04-25T15:31:22;25.30;66.90
18105;DHT22;9179;50.968;3.134;2023-04-25T15:33:49;26.10;63.50
18105;DHT22;9179;50.968;3.134;2023-04-25T15:36:16;26.40;59.90
18105;DHT22;9179;50.968;3.134;2023-04-25T15:38:44;27.20;59.30
18105;DHT22;9179;50.968;3.134;2023-04-25T15:41:12;27.70;57.50
18105;DHT22;9179;50.968;3.134;2023-04-25T15:43:39;27.80;56.10
18105;DHT22;9179;50.968;3.134;2023-04-25T15:46:06;29.30;55.10
18105;DHT22;9179;50.968;3.134;2023-04-25T15:48:34;29.70;52.50
18105;DHT22;9179;50.968;3.134;2023-04-25T15:51:01;29.60;52.30
18105;DHT22;9179;50.968;3.134;2023-04-25T15:53:29;29.50;51.50
18105;DHT22;9179;50.968;3.134;2023-04-25T15:55:56;26.60;52.20